LNK146 EGCC-EGLL
Flight info
| Callsign | LNK146 |
|---|---|
| Flight time | 0h 30m |
| Altitude | 17000 |
| Route | SANBA N859 HON |
| Aircraft | A35K/H-SDE2E3GHIJ3J4J5LM1ORWXY/LB1D1 |
Departure
| Time | 2026-05-08 04:23 |
|---|---|
| Airport | Manchester Airport (EGCC) |
Arrival
| Time | 2026-05-08 04:53 |
|---|---|
| Airport | London Heathrow Airport (EGLL) |
| Time | Latitude | Longitude | Altitude | Speed | Heading |
|---|---|---|---|---|---|
| 2026-05-08 03:48 | 53.36401 | -2.27674 | 261 ft | 0 kts | 45° |
| 2026-05-08 04:16 | 53.36390 | -2.27693 | 262 ft | 4 kts | 45° |
| 2026-05-08 04:16 | 53.36373 | -2.27721 | 263 ft | 2 kts | 44° |
| 2026-05-08 04:16 | 53.36354 | -2.27743 | 265 ft | 4 kts | 357° |
| 2026-05-08 04:17 | 53.36338 | -2.27725 | 266 ft | 4 kts | 289° |
| 2026-05-08 04:17 | 53.36336 | -2.27719 | 267 ft | 2 kts | 284° |
| 2026-05-08 04:19 | 53.36337 | -2.27724 | 266 ft | 2 kts | 284° |
| 2026-05-08 04:19 | 53.36350 | -2.27773 | 264 ft | 7 kts | 302° |
| 2026-05-08 04:20 | 53.36385 | -2.27855 | 261 ft | 10 kts | 300° |
| 2026-05-08 04:20 | 53.36368 | -2.27966 | 261 ft | 12 kts | 232° |
| 2026-05-08 04:20 | 53.36264 | -2.28066 | 261 ft | 19 kts | 193° |
| 2026-05-08 04:20 | 53.36149 | -2.27980 | 261 ft | 20 kts | 148° |
| 2026-05-08 04:21 | 53.36038 | -2.27830 | 261 ft | 22 kts | 139° |
| 2026-05-08 04:21 | 53.35902 | -2.27731 | 261 ft | 23 kts | 181° |
| 2026-05-08 04:21 | 53.35740 | -2.27655 | 255 ft | 27 kts | 158° |
| 2026-05-08 04:21 | 53.35581 | -2.27473 | 251 ft | 29 kts | 141° |
| 2026-05-08 04:22 | 53.35424 | -2.27264 | 253 ft | 30 kts | 141° |
| 2026-05-08 04:22 | 53.35241 | -2.27205 | 242 ft | 30 kts | 193° |
| 2026-05-08 04:22 | 53.35026 | -2.27321 | 236 ft | 34 kts | 219° |
| 2026-05-08 04:22 | 53.34817 | -2.27734 | 234 ft | 85 kts | 231° |
| 2026-05-08 04:23 | 53.34217 | -2.28949 | 288 ft | 177 kts | 229° |
| 2026-05-08 04:23 | 53.33368 | -2.30641 | 1201 ft | 205 kts | 230° |
| 2026-05-08 04:23 | 53.32486 | -2.32685 | 1935 ft | 230 kts | 243° |
| 2026-05-08 04:23 | 53.32251 | -2.35420 | 2732 ft | 243 kts | 270° |
| 2026-05-08 04:24 | 53.32154 | -2.38212 | 3678 ft | 245 kts | 255° |
| 2026-05-08 04:24 | 53.31336 | -2.40714 | 4639 ft | 245 kts | 225° |
| 2026-05-08 04:24 | 53.29964 | -2.42434 | 5407 ft | 258 kts | 212° |
| 2026-05-08 04:24 | 53.28283 | -2.43834 | 5800 ft | 285 kts | 199° |
| 2026-05-08 04:25 | 53.26221 | -2.44060 | 6186 ft | 314 kts | 171° |
| 2026-05-08 04:25 | 53.24099 | -2.42665 | 6683 ft | 338 kts | 154° |
| 2026-05-08 04:25 | 53.22028 | -2.40749 | 7490 ft | 349 kts | 152° |
| 2026-05-08 04:25 | 53.19885 | -2.38767 | 8390 ft | 356 kts | 153° |
| 2026-05-08 04:26 | 53.17686 | -2.36778 | 9360 ft | 362 kts | 153° |
| 2026-05-08 04:26 | 53.15434 | -2.34775 | 10327 ft | 368 kts | 154° |
| 2026-05-08 04:26 | 53.13156 | -2.32766 | 11199 ft | 373 kts | 153° |
| 2026-05-08 04:26 | 53.10839 | -2.30724 | 12087 ft | 379 kts | 154° |
| 2026-05-08 04:27 | 53.08484 | -2.28663 | 12984 ft | 385 kts | 154° |
| 2026-05-08 04:27 | 53.06111 | -2.26596 | 13862 ft | 390 kts | 154° |
| 2026-05-08 04:27 | 53.03686 | -2.24489 | 14655 ft | 396 kts | 154° |
| 2026-05-08 04:27 | 53.01227 | -2.22355 | 15485 ft | 400 kts | 154° |
| 2026-05-08 04:28 | 52.98777 | -2.20225 | 16283 ft | 404 kts | 154° |
| 2026-05-08 04:28 | 52.96277 | -2.18056 | 16844 ft | 407 kts | 154° |
| 2026-05-08 04:28 | 52.93754 | -2.15872 | 17026 ft | 409 kts | 154° |
| 2026-05-08 04:28 | 52.91220 | -2.13683 | 17049 ft | 413 kts | 154° |
| 2026-05-08 04:29 | 52.88665 | -2.11480 | 17050 ft | 416 kts | 154° |
| 2026-05-08 04:29 | 52.86086 | -2.09257 | 17045 ft | 417 kts | 154° |
| 2026-05-08 04:29 | 52.83536 | -2.07061 | 17046 ft | 417 kts | 154° |
| 2026-05-08 04:29 | 52.80949 | -2.04836 | 17052 ft | 417 kts | 154° |
| 2026-05-08 04:30 | 52.78367 | -2.02618 | 17049 ft | 417 kts | 154° |
| 2026-05-08 04:30 | 52.75787 | -2.00405 | 17040 ft | 417 kts | 154° |
| 2026-05-08 04:30 | 52.73210 | -1.98198 | 17036 ft | 417 kts | 154° |
| 2026-05-08 04:30 | 52.70663 | -1.96019 | 17037 ft | 416 kts | 154° |
| 2026-05-08 04:31 | 52.68116 | -1.93841 | 17055 ft | 410 kts | 154° |
| 2026-05-08 04:31 | 52.65593 | -1.91687 | 17038 ft | 408 kts | 154° |
| 2026-05-08 04:31 | 52.63067 | -1.89535 | 17055 ft | 408 kts | 154° |
| 2026-05-08 04:31 | 52.60541 | -1.87387 | 17057 ft | 408 kts | 154° |
| 2026-05-08 04:32 | 52.58012 | -1.85239 | 17038 ft | 408 kts | 155° |
| 2026-05-08 04:32 | 52.55480 | -1.83092 | 17045 ft | 408 kts | 155° |
| 2026-05-08 04:32 | 52.52956 | -1.80955 | 17040 ft | 408 kts | 155° |
| 2026-05-08 04:32 | 52.50462 | -1.78844 | 17053 ft | 408 kts | 154° |
| 2026-05-08 04:33 | 52.47937 | -1.76710 | 17033 ft | 408 kts | 154° |
| 2026-05-08 04:33 | 52.45413 | -1.74580 | 17053 ft | 408 kts | 154° |
| 2026-05-08 04:33 | 52.42888 | -1.72451 | 17053 ft | 408 kts | 155° |
| 2026-05-08 04:33 | 52.40368 | -1.70329 | 17036 ft | 408 kts | 155° |
| 2026-05-08 04:34 | 52.37873 | -1.68231 | 17052 ft | 408 kts | 155° |
| 2026-05-08 04:34 | 52.35401 | -1.65879 | 17055 ft | 410 kts | 146° |
| 2026-05-08 04:34 | 52.33176 | -1.62943 | 17053 ft | 411 kts | 141° |
| 2026-05-08 04:34 | 52.31018 | -1.59876 | 17003 ft | 410 kts | 141° |
| 2026-05-08 04:35 | 52.28901 | -1.56860 | 16556 ft | 404 kts | 141° |
| 2026-05-08 04:35 | 52.26812 | -1.53897 | 16256 ft | 392 kts | 141° |
| 2026-05-08 04:35 | 52.24781 | -1.51026 | 15998 ft | 379 kts | 141° |
| 2026-05-08 04:35 | 52.22824 | -1.48268 | 15766 ft | 366 kts | 142° |
| 2026-05-08 04:36 | 52.20925 | -1.45596 | 15518 ft | 355 kts | 141° |
| 2026-05-08 04:36 | 52.19082 | -1.43006 | 15317 ft | 344 kts | 142° |
| 2026-05-08 04:36 | 52.17293 | -1.40509 | 15136 ft | 332 kts | 142° |
| 2026-05-08 04:36 | 52.15572 | -1.38107 | 15083 ft | 316 kts | 142° |
| 2026-05-08 04:37 | 52.13944 | -1.35837 | 15083 ft | 299 kts | 142° |
| 2026-05-08 04:37 | 52.12423 | -1.33716 | 15083 ft | 283 kts | 142° |
| 2026-05-08 04:37 | 52.10952 | -1.31668 | 15084 ft | 274 kts | 143° |
| 2026-05-08 04:37 | 52.09497 | -1.29649 | 15077 ft | 274 kts | 143° |
| 2026-05-08 04:38 | 52.08044 | -1.27636 | 15071 ft | 274 kts | 143° |
| 2026-05-08 04:38 | 52.06607 | -1.25644 | 15070 ft | 275 kts | 143° |
| 2026-05-08 04:38 | 52.05150 | -1.23624 | 15067 ft | 275 kts | 143° |
| 2026-05-08 04:38 | 52.03695 | -1.21608 | 15064 ft | 275 kts | 142° |
| 2026-05-08 04:39 | 52.02239 | -1.19594 | 15054 ft | 276 kts | 142° |
| 2026-05-08 04:39 | 52.00771 | -1.17563 | 15054 ft | 277 kts | 142° |
| 2026-05-08 04:39 | 51.99301 | -1.15532 | 15055 ft | 277 kts | 142° |
| 2026-05-08 04:39 | 51.97831 | -1.13500 | 14972 ft | 278 kts | 142° |
| 2026-05-08 04:40 | 51.96358 | -1.11470 | 14575 ft | 280 kts | 142° |
| 2026-05-08 04:40 | 51.94882 | -1.09426 | 14341 ft | 276 kts | 142° |
| 2026-05-08 04:40 | 51.93420 | -1.07409 | 14172 ft | 275 kts | 142° |
| 2026-05-08 04:40 | 51.91956 | -1.05395 | 14038 ft | 275 kts | 142° |
| 2026-05-08 04:41 | 51.90495 | -1.03388 | 13799 ft | 276 kts | 142° |
| 2026-05-08 04:41 | 51.89039 | -1.01388 | 13351 ft | 277 kts | 142° |
| 2026-05-08 04:41 | 51.87569 | -0.99369 | 12937 ft | 276 kts | 142° |
| 2026-05-08 04:41 | 51.86112 | -0.97351 | 12540 ft | 276 kts | 141° |
| 2026-05-08 04:42 | 51.84704 | -0.95268 | 12133 ft | 271 kts | 149° |
| 2026-05-08 04:42 | 51.83075 | -0.93841 | 11903 ft | 261 kts | 156° |
| 2026-05-08 04:42 | 51.81480 | -0.92575 | 11773 ft | 247 kts | 157° |
| 2026-05-08 04:42 | 51.80006 | -0.91412 | 11616 ft | 225 kts | 158° |
| 2026-05-08 04:43 | 51.78642 | -0.90339 | 11376 ft | 213 kts | 158° |
| 2026-05-08 04:43 | 51.77336 | -0.89321 | 10990 ft | 210 kts | 158° |
| 2026-05-08 04:43 | 51.76021 | -0.88301 | 10497 ft | 212 kts | 158° |
| 2026-05-08 04:43 | 51.74663 | -0.87249 | 9949 ft | 215 kts | 159° |
| 2026-05-08 04:44 | 51.73351 | -0.86226 | 9559 ft | 206 kts | 158° |
| 2026-05-08 04:44 | 51.72064 | -0.85226 | 9190 ft | 203 kts | 158° |
| 2026-05-08 04:44 | 51.70798 | -0.84244 | 8859 ft | 201 kts | 158° |
| 2026-05-08 04:44 | 51.69555 | -0.83280 | 8571 ft | 200 kts | 157° |
| 2026-05-08 04:45 | 51.68303 | -0.82310 | 8289 ft | 199 kts | 157° |
| 2026-05-08 04:45 | 51.67053 | -0.81342 | 8007 ft | 198 kts | 156° |
| 2026-05-08 04:45 | 51.65817 | -0.80384 | 7726 ft | 197 kts | 156° |
| 2026-05-08 04:45 | 51.64584 | -0.79431 | 7448 ft | 196 kts | 156° |
| 2026-05-08 04:46 | 51.63359 | -0.78483 | 7170 ft | 195 kts | 155° |
| 2026-05-08 04:46 | 51.62136 | -0.77536 | 6895 ft | 193 kts | 155° |
| 2026-05-08 04:46 | 51.60938 | -0.76616 | 6633 ft | 192 kts | 155° |
| 2026-05-08 04:46 | 51.59673 | -0.75938 | 6371 ft | 192 kts | 169° |
| 2026-05-08 04:47 | 51.58343 | -0.75897 | 6075 ft | 191 kts | 187° |
| 2026-05-08 04:47 | 51.57055 | -0.76409 | 5794 ft | 190 kts | 196° |
| 2026-05-08 04:47 | 51.55792 | -0.77049 | 5508 ft | 189 kts | 197° |
| 2026-05-08 04:47 | 51.54555 | -0.77680 | 5228 ft | 188 kts | 197° |
| 2026-05-08 04:48 | 51.53308 | -0.78306 | 4950 ft | 187 kts | 196° |
| 2026-05-08 04:48 | 51.52039 | -0.78688 | 4658 ft | 185 kts | 182° |
| 2026-05-08 04:48 | 51.50764 | -0.78442 | 4238 ft | 186 kts | 163° |
| 2026-05-08 04:48 | 51.49602 | -0.77532 | 3728 ft | 191 kts | 147° |
| 2026-05-08 04:49 | 51.48527 | -0.76256 | 3292 ft | 192 kts | 140° |
| 2026-05-08 04:49 | 51.47782 | -0.74548 | 3031 ft | 183 kts | 110° |
| 2026-05-08 04:49 | 51.47657 | -0.72592 | 3018 ft | 172 kts | 90° |
| 2026-05-08 04:49 | 51.47687 | -0.70679 | 2887 ft | 171 kts | 92° |
| 2026-05-08 04:50 | 51.47681 | -0.68766 | 2655 ft | 172 kts | 92° |
| 2026-05-08 04:50 | 51.47685 | -0.66888 | 2417 ft | 165 kts | 92° |
| 2026-05-08 04:50 | 51.47691 | -0.65111 | 2197 ft | 154 kts | 93° |
| 2026-05-08 04:50 | 51.47696 | -0.63423 | 1994 ft | 149 kts | 93° |
| 2026-05-08 04:51 | 51.47701 | -0.61755 | 1788 ft | 149 kts | 93° |
| 2026-05-08 04:51 | 51.47706 | -0.60114 | 1585 ft | 149 kts | 92° |
| 2026-05-08 04:51 | 51.47712 | -0.58453 | 1375 ft | 148 kts | 92° |
| 2026-05-08 04:51 | 51.47718 | -0.56804 | 1162 ft | 148 kts | 91° |
| 2026-05-08 04:52 | 51.47724 | -0.55157 | 960 ft | 147 kts | 90° |
| 2026-05-08 04:52 | 51.47730 | -0.53513 | 745 ft | 147 kts | 90° |
| 2026-05-08 04:52 | 51.47736 | -0.51889 | 544 ft | 147 kts | 89° |
| 2026-05-08 04:52 | 51.47740 | -0.50248 | 354 ft | 146 kts | 89° |
| 2026-05-08 04:53 | 51.47746 | -0.48619 | 149 ft | 144 kts | 88° |
| 2026-05-08 04:53 | 51.47759 | -0.47127 | 96 ft | 105 kts | 89° |
| 2026-05-08 04:53 | 51.47758 | -0.46353 | 97 ft | 54 kts | 91° |
| 2026-05-08 04:53 | 51.47664 | -0.46114 | 96 ft | 22 kts | 140° |
| 2026-05-08 04:54 | 51.47538 | -0.46088 | 96 ft | 20 kts | 211° |
| 2026-05-08 04:54 | 51.47513 | -0.46290 | 96 ft | 21 kts | 279° |
| 2026-05-08 04:54 | 51.47522 | -0.46539 | 95 ft | 24 kts | 269° |
| 2026-05-08 04:54 | 51.47498 | -0.46810 | 94 ft | 24 kts | 250° |
| 2026-05-08 04:55 | 51.47417 | -0.46871 | 95 ft | 10 kts | 170° |
| 2026-05-08 04:55 | 51.47381 | -0.46898 | 93 ft | 5 kts | 242° |
| 2026-05-08 04:55 | 51.47373 | -0.46969 | 95 ft | 8 kts | 265° |
| 2026-05-08 04:55 | 51.47372 | -0.47002 | 95 ft | 2 kts | 267° |
| 2026-05-08 04:56 | 51.47372 | -0.47022 | 96 ft | 0 kts | 268° |
| 2026-05-08 04:56 | 51.47372 | -0.47023 | 96 ft | 0 kts | 268° |